Kezdőlap
METAR-TAF:

METAR-TAF

Repülőterek :

Csita, Oroszország

földrajzi szélesség: 52-05N, földrajzi hosszúság: 113-29E, magasság: 685 m

Jelenlegi meteorológiai megfigyelések

A jelentés 47 perccel ezelõtt készült, 09:00 UTC
Különbözõ irányokból fújó szél 2 kt
Hőmérséklet 26°C
Páratartalom 20%
Légköri nyomás 1010 hPa
Látótávolság 10 km, vagy több

METAR: UIAA 280900Z VRB01MPS 9999 NSC 26/01 Q1010 R29/70D NOSIG RMK QFE699/0932

Idő: 18:47 (09:47 UTC)

Előrejelzés

A jelentés 1 órával és 47 perccel ezelõtt készült, 08:00 UTC
Az előrejelzés 28-én 09 óra UTC és 29-én 09 óra UTC között érvényes
Déli szél 6 kt
Látótávolság 10 km, vagy több

TAF: UIAA 280800Z 2809/2909 18003MPS 9999 NSC

Meteorológiai megfigyelések és előrejelzések több, mint 4000 repülőtéren (METAR és TAF jelentéseket).

A térképen piros és sárga pontok jelzik az elérhető meteorológiai állomásokat.

Mozgassa az egeret a pont fölött, hogy megjelenjen az állomás neve.

Azután kattintson az időjárási megfigyelések és előrejelzések megtekintéséhez.

A térkép megváltoztatása: kattintson a fekete keresztel jelölt zöld gombra ráközelítéshez, a vonallal jelölt zöld gombra távolításhoz, vagy a zöld nyilakra a szomszédos térképek eléréséhez.


METAR-TAF: